createdAt,value
2023-05-15T00:00:39.721Z,11.60
2023-05-15T00:03:06.563Z,11.70
2023-05-15T00:05:33.533Z,12.10
2023-05-15T00:08:00.520Z,12.20
2023-05-15T00:10:27.364Z,11.30
2023-05-15T00:12:55.380Z,11.20
2023-05-15T00:15:22.262Z,11.90
2023-05-15T00:17:49.105Z,11.50
2023-05-15T00:20:15.990Z,11.70
2023-05-15T00:22:42.852Z,11.20
2023-05-15T00:25:10.507Z,10.80
2023-05-15T00:27:37.470Z,10.50
2023-05-15T00:30:05.948Z,11.40
2023-05-15T00:32:32.936Z,11.40
2023-05-15T00:34:59.848Z,11.70
2023-05-15T00:37:26.630Z,11.90
2023-05-15T00:39:53.740Z,11.00
2023-05-15T00:42:20.795Z,11.20
2023-05-15T00:44:47.645Z,11.30
2023-05-15T00:47:14.480Z,10.80
2023-05-15T00:49:41.430Z,10.90
2023-05-15T00:52:08.902Z,11.40
2023-05-15T00:54:35.709Z,11.10
2023-05-15T00:57:04.531Z,11.70
2023-05-15T00:59:31.577Z,11.80
2023-05-15T01:01:58.498Z,12.40
2023-05-15T01:04:25.695Z,12.20
2023-05-15T01:06:55.601Z,12.00
2023-05-15T01:09:25.806Z,12.00
2023-05-15T01:11:54.597Z,11.00
2023-05-15T01:14:21.434Z,11.20
2023-05-15T01:16:48.326Z,12.50
2023-05-15T01:19:15.288Z,11.40
2023-05-15T01:21:48.401Z,11.80
2023-05-15T01:25:14.077Z,13.00
2023-05-15T01:27:52.285Z,12.70
2023-05-15T01:30:23.714Z,13.70
2023-05-15T01:33:13.437Z,13.30
2023-05-15T01:35:51.301Z,13.50
2023-05-15T01:38:33.405Z,12.80
2023-05-15T01:41:06.654Z,12.60
2023-05-15T01:43:33.700Z,11.60
2023-05-15T01:46:01.689Z,11.80
2023-05-15T01:48:28.794Z,11.80
2023-05-15T01:50:58.255Z,9.00
2023-05-15T01:53:25.558Z,10.80
2023-05-15T01:55:52.375Z,10.80
2023-05-15T01:58:19.284Z,11.00
2023-05-15T02:00:46.070Z,11.10
2023-05-15T02:03:12.938Z,11.30
2023-05-15T02:05:41.033Z,10.50
2023-05-15T02:08:07.915Z,11.00
2023-05-15T02:10:34.803Z,10.80
2023-05-15T02:13:01.705Z,12.00
2023-05-15T02:15:29.339Z,10.80
2023-05-15T02:17:56.297Z,11.50
2023-05-15T02:20:23.249Z,11.50
2023-05-15T02:22:50.026Z,9.90
2023-05-15T02:25:17.053Z,10.50
2023-05-15T02:27:52.131Z,10.90
2023-05-15T02:30:31.258Z,10.70
2023-05-15T02:33:27.459Z,11.00
2023-05-15T02:35:59.912Z,10.10
2023-05-15T02:38:29.865Z,11.80
2023-05-15T02:40:57.010Z,11.70
2023-05-15T02:43:24.109Z,10.80
2023-05-15T02:45:51.103Z,10.90
2023-05-15T02:48:18.102Z,12.10
2023-05-15T02:50:45.645Z,11.70
2023-05-15T02:53:14.702Z,11.20
2023-05-15T02:55:41.484Z,11.50
2023-05-15T02:58:08.396Z,10.50
2023-05-15T03:00:35.377Z,10.80
2023-05-15T03:03:02.283Z,9.90
2023-05-15T03:05:29.279Z,10.90
2023-05-15T03:07:57.557Z,10.20
2023-05-15T03:10:24.560Z,10.40
2023-05-15T03:12:51.624Z,10.20
2023-05-15T03:15:19.361Z,10.90
2023-05-15T03:17:46.193Z,10.00
2023-05-15T03:20:14.625Z,9.50
2023-05-15T03:22:41.804Z,9.40
2023-05-15T03:25:11.804Z,9.80
2023-05-15T03:27:38.923Z,10.40
2023-05-15T03:30:06.911Z,10.90
2023-05-15T03:32:33.752Z,10.20
2023-05-15T03:35:01.031Z,11.50
2023-05-15T03:37:28.240Z,10.60
2023-05-15T03:39:55.239Z,9.50
2023-05-15T03:42:23.812Z,10.20
2023-05-15T03:44:51.094Z,9.50
2023-05-15T03:47:18.395Z,9.20
2023-05-15T03:49:46.548Z,9.50
2023-05-15T03:52:13.441Z,10.00
2023-05-15T03:54:40.451Z,10.40
2023-05-15T03:57:07.965Z,10.30
2023-05-15T03:59:34.754Z,9.80
2023-05-15T04:02:04.799Z,10.00
2023-05-15T04:04:32.586Z,10.00
2023-05-15T04:07:00.143Z,9.10
2023-05-15T04:09:27.008Z,8.80
2023-05-15T04:11:53.889Z,10.20
2023-05-15T04:14:21.098Z,10.60
2023-05-15T04:16:48.025Z,10.40
2023-05-15T04:19:15.103Z,11.10
2023-05-15T04:21:42.204Z,10.90
2023-05-15T04:24:09.015Z,11.10
2023-05-15T04:26:36.689Z,11.30
2023-05-15T04:29:04.867Z,10.90
2023-05-15T04:31:32.291Z,10.50
2023-05-15T04:33:59.387Z,10.50
2023-05-15T04:36:26.285Z,10.80
2023-05-15T04:38:53.081Z,10.60
2023-05-15T04:41:19.887Z,10.70
2023-05-15T04:43:46.799Z,11.00
2023-05-15T04:46:13.726Z,10.80
2023-05-15T04:48:40.760Z,11.10
2023-05-15T04:51:07.893Z,11.20
2023-05-15T04:53:34.799Z,11.20
2023-05-15T04:56:01.707Z,12.40
2023-05-15T04:58:28.596Z,11.20
2023-05-15T05:00:55.732Z,10.80
2023-05-15T05:03:23.216Z,10.20
2023-05-15T05:05:50.304Z,10.60
2023-05-15T05:08:17.258Z,9.90
2023-05-15T05:10:44.123Z,9.60
2023-05-15T05:13:11.049Z,9.60
2023-05-15T05:15:38.136Z,8.90
2023-05-15T05:18:06.266Z,8.90
2023-05-15T05:20:33.175Z,8.90
2023-05-15T05:23:00.029Z,8.50
2023-05-15T05:25:26.990Z,8.90
2023-05-15T05:27:53.970Z,9.00
2023-05-15T05:30:22.453Z,8.30
2023-05-15T05:32:49.316Z,7.80
2023-05-15T05:35:16.228Z,9.00
2023-05-15T05:37:43.321Z,8.80
2023-05-15T05:40:11.169Z,8.40
2023-05-15T05:42:38.166Z,8.70
2023-05-15T05:45:06.804Z,9.50
2023-05-15T05:47:33.780Z,9.50
2023-05-15T05:50:00.625Z,8.50
2023-05-15T05:52:29.264Z,8.80
2023-05-15T05:54:56.127Z,8.30
2023-05-15T05:57:22.937Z,8.30
2023-05-15T05:59:50.156Z,7.90
2023-05-15T06:02:17.255Z,7.60
2023-05-15T06:04:44.346Z,7.20
2023-05-15T06:07:11.266Z,6.50
2023-05-15T06:09:38.146Z,6.90
2023-05-15T06:12:05.788Z,6.00
2023-05-15T06:14:32.687Z,5.90
2023-05-15T06:17:00.722Z,5.60
2023-05-15T06:19:27.610Z,5.40
2023-05-15T06:21:54.693Z,5.70
2023-05-15T06:24:21.523Z,5.10
2023-05-15T06:26:49.636Z,5.40
2023-05-15T06:29:17.665Z,5.10
2023-05-15T06:31:44.482Z,5.60
2023-05-15T06:34:11.274Z,5.00
2023-05-15T06:36:38.199Z,5.50
2023-05-15T06:39:05.611Z,5.10
2023-05-15T06:41:33.130Z,5.30
2023-05-15T06:44:00.116Z,5.20
2023-05-15T06:46:26.895Z,4.20
2023-05-15T06:48:53.787Z,4.40
2023-05-15T06:51:20.691Z,4.40
2023-05-15T06:53:47.474Z,3.60
2023-05-15T06:56:14.354Z,3.60
2023-05-15T06:58:41.132Z,2.50
2023-05-15T07:01:09.554Z,2.60
2023-05-15T07:03:36.444Z,2.80
2023-05-15T07:06:03.384Z,2.60
2023-05-15T07:08:30.193Z,3.10
2023-05-15T07:10:57.136Z,2.70
2023-05-15T07:13:23.920Z,3.00
2023-05-15T07:15:50.797Z,2.80
2023-05-15T07:18:18.164Z,3.00
2023-05-15T07:20:45.124Z,2.80
2023-05-15T07:23:11.986Z,2.60
2023-05-15T07:25:38.831Z,2.70
2023-05-15T07:28:05.650Z,2.70
2023-05-15T07:30:32.500Z,2.60
2023-05-15T07:32:59.420Z,2.70
2023-05-15T07:35:26.654Z,2.80
2023-05-15T07:37:53.839Z,2.40
2023-05-15T07:40:20.737Z,2.80
2023-05-15T07:42:47.699Z,2.60
2023-05-15T07:45:14.568Z,2.80
2023-05-15T07:47:50.711Z,2.70
2023-05-15T07:50:17.703Z,2.70
2023-05-15T07:52:44.638Z,2.40
2023-05-15T07:55:11.671Z,2.40
2023-05-15T07:57:42.703Z,2.80
2023-05-15T08:00:13.638Z,2.40
2023-05-15T08:02:41.302Z,3.00
2023-05-15T08:05:08.357Z,3.30
2023-05-15T08:07:35.282Z,3.00
2023-05-15T08:10:04.289Z,2.30
2023-05-15T08:12:31.189Z,2.30
2023-05-15T08:14:58.056Z,2.40
2023-05-15T08:17:25.031Z,3.20
2023-05-15T08:19:52.331Z,2.60
2023-05-15T08:22:19.237Z,3.00
2023-05-15T08:24:46.031Z,3.10
2023-05-15T08:27:12.786Z,2.90
2023-05-15T08:29:40.046Z,2.30
2023-05-15T08:32:07.785Z,2.60
2023-05-15T08:34:34.689Z,3.10
2023-05-15T08:37:01.760Z,2.60
2023-05-15T08:39:28.899Z,2.60
2023-05-15T08:42:19.372Z,2.70
2023-05-15T08:44:46.235Z,3.30
2023-05-15T08:47:14.448Z,2.40
2023-05-15T08:50:04.973Z,3.20
2023-05-15T08:52:32.810Z,3.10
2023-05-15T08:55:00.157Z,2.70
2023-05-15T08:57:28.169Z,3.20
2023-05-15T08:59:55.244Z,3.10
2023-05-15T09:02:22.650Z,3.00
2023-05-15T09:04:49.541Z,3.20
2023-05-15T09:07:17.405Z,2.90
2023-05-15T09:09:47.505Z,3.80
2023-05-15T09:12:17.457Z,3.70
2023-05-15T09:14:44.326Z,3.30
2023-05-15T09:17:11.936Z,2.80
2023-05-15T09:19:40.030Z,3.30
2023-05-15T09:22:26.156Z,2.90
2023-05-15T09:24:58.170Z,2.70
2023-05-15T09:27:25.042Z,2.70
2023-05-15T09:29:54.428Z,2.60
2023-05-15T09:32:21.479Z,3.00
2023-05-15T09:34:54.775Z,2.50
2023-05-15T09:37:32.058Z,2.50
2023-05-15T09:40:11.851Z,2.30
2023-05-15T09:42:38.871Z,2.80
2023-05-15T09:45:06.752Z,2.70
2023-05-15T09:47:34.025Z,2.40
2023-05-15T09:50:01.384Z,2.60
2023-05-15T09:52:28.931Z,2.80
2023-05-15T09:54:56.566Z,2.50
2023-05-15T09:57:23.550Z,3.40
2023-05-15T09:59:50.462Z,3.70
2023-05-15T10:02:24.813Z,2.80
2023-05-15T10:04:56.609Z,2.90
2023-05-15T10:07:36.389Z,2.90
2023-05-15T10:10:04.614Z,3.10
2023-05-15T10:12:32.364Z,2.80
2023-05-15T10:15:00.206Z,4.10
2023-05-15T10:17:28.556Z,2.90
2023-05-15T10:19:58.362Z,2.50
2023-05-15T10:22:29.126Z,2.90
2023-05-15T10:25:43.744Z,2.50
2023-05-15T10:28:11.345Z,2.60
2023-05-15T10:30:38.576Z,2.30
2023-05-15T10:33:06.750Z,2.80
2023-05-15T10:35:38.195Z,2.40
2023-05-15T10:38:05.633Z,2.60
2023-05-15T10:40:33.442Z,2.10
2023-05-15T10:43:03.199Z,2.50
2023-05-15T10:45:30.292Z,2.50
2023-05-15T10:47:57.187Z,2.40
2023-05-15T10:50:24.139Z,2.30
2023-05-15T10:52:52.015Z,2.50
2023-05-15T10:55:18.925Z,2.40
2023-05-15T10:57:47.040Z,2.10
2023-05-15T11:00:31.723Z,2.20
2023-05-15T11:03:07.381Z,2.20
2023-05-15T11:06:09.785Z,2.30
2023-05-15T11:08:37.878Z,2.10
2023-05-15T11:11:05.247Z,2.20
2023-05-15T11:15:12.559Z,2.50
2023-05-15T11:17:39.625Z,2.20
2023-05-15T11:20:07.250Z,2.50
2023-05-15T11:22:38.812Z,2.00
2023-05-15T11:25:16.140Z,2.70
2023-05-15T11:27:44.681Z,2.30
2023-05-15T11:30:20.926Z,2.10
2023-05-15T11:32:47.801Z,2.70
2023-05-15T11:35:25.252Z,2.10
2023-05-15T11:37:54.440Z,2.70
2023-05-15T11:40:26.661Z,2.50
2023-05-15T11:43:07.711Z,2.70
2023-05-15T11:45:38.878Z,2.80
2023-05-15T11:48:07.564Z,2.20
2023-05-15T11:50:35.446Z,2.60
2023-05-15T11:53:04.667Z,2.70
2023-05-15T11:55:32.924Z,2.70
2023-05-15T11:58:00.883Z,2.50
2023-05-15T12:00:27.892Z,2.20
2023-05-15T12:02:54.896Z,2.30
2023-05-15T12:05:22.361Z,2.60
2023-05-15T12:07:49.281Z,2.10
2023-05-15T12:10:16.121Z,2.60
2023-05-15T12:12:43.728Z,2.20
2023-05-15T12:15:12.157Z,2.20
2023-05-15T12:17:40.232Z,2.10
2023-05-15T12:20:17.964Z,2.20
2023-05-15T12:22:45.301Z,2.80
2023-05-15T12:25:12.801Z,2.10
2023-05-15T12:27:40.152Z,2.40
2023-05-15T12:30:07.792Z,2.30
2023-05-15T12:32:36.341Z,2.10
2023-05-15T12:35:05.093Z,2.40
2023-05-15T12:37:33.926Z,2.50
2023-05-15T12:40:02.442Z,2.30
2023-05-15T12:42:29.372Z,2.70
2023-05-15T12:44:58.043Z,2.10
2023-05-15T12:47:28.351Z,2.20
2023-05-15T12:49:56.869Z,2.30
2023-05-15T12:52:23.917Z,2.60
2023-05-15T12:54:50.909Z,2.30
2023-05-15T12:57:17.736Z,2.40
2023-05-15T12:59:44.620Z,2.10
2023-05-15T13:02:12.251Z,2.30
2023-05-15T13:04:39.461Z,1.70
2023-05-15T13:07:06.665Z,1.90
2023-05-15T13:09:35.411Z,3.20
2023-05-15T13:12:03.807Z,3.00
2023-05-15T13:14:34.559Z,2.20
2023-05-15T13:17:03.022Z,2.70
2023-05-15T13:19:29.898Z,2.60
2023-05-15T13:21:57.731Z,2.60
2023-05-15T13:24:24.536Z,2.50
2023-05-15T13:26:52.741Z,2.90
2023-05-15T13:29:19.853Z,2.10
2023-05-15T13:31:47.073Z,2.30
2023-05-15T13:34:14.151Z,1.80
2023-05-15T13:36:41.161Z,1.80
2023-05-15T13:39:08.162Z,2.40
2023-05-15T13:41:36.841Z,2.40
2023-05-15T13:44:03.834Z,2.80
2023-05-15T13:46:30.711Z,2.40
2023-05-15T13:48:57.616Z,2.60
2023-05-15T13:51:24.532Z,2.10
2023-05-15T13:53:51.414Z,2.10
2023-05-15T13:56:18.438Z,1.70
2023-05-15T13:58:45.653Z,1.50
2023-05-15T14:01:12.604Z,1.70
2023-05-15T14:03:39.719Z,2.40
2023-05-15T14:06:07.165Z,2.60
2023-05-15T14:08:34.013Z,2.30
2023-05-15T14:11:01.587Z,3.40
2023-05-15T14:13:31.776Z,3.00
2023-05-15T14:15:58.815Z,2.30
2023-05-15T14:18:26.299Z,1.60
2023-05-15T14:20:53.192Z,1.80
2023-05-15T14:23:20.091Z,1.80
2023-05-15T14:25:46.890Z,1.70
2023-05-15T14:28:13.888Z,2.30
2023-05-15T14:30:40.667Z,2.90
2023-05-15T14:33:07.603Z,2.00
2023-05-15T14:35:34.564Z,2.00
2023-05-15T14:38:01.504Z,1.70
2023-05-15T14:40:28.365Z,1.70
2023-05-15T14:42:55.301Z,1.50
2023-05-15T14:45:22.356Z,1.70
2023-05-15T14:47:49.209Z,1.90
2023-05-15T14:50:16.286Z,2.50
2023-05-15T14:52:43.087Z,2.50
2023-05-15T14:55:10.286Z,1.90
2023-05-15T14:57:37.936Z,1.50
2023-05-15T15:00:06.756Z,1.60
2023-05-15T15:02:34.233Z,2.00
2023-05-15T15:05:01.171Z,1.40
2023-05-15T15:07:29.625Z,1.30
2023-05-15T15:09:56.411Z,1.60
2023-05-15T15:12:23.318Z,2.00
2023-05-15T15:14:50.253Z,1.80
2023-05-15T15:17:17.231Z,1.60
2023-05-15T15:19:44.177Z,1.70
2023-05-15T15:22:11.226Z,1.50
2023-05-15T15:24:38.153Z,1.70
2023-05-15T15:27:05.444Z,1.70
2023-05-15T15:29:32.369Z,2.10
2023-05-15T15:31:59.186Z,1.70
2023-05-15T15:34:26.962Z,1.80
2023-05-15T15:36:53.753Z,1.90
2023-05-15T15:39:21.090Z,2.00
2023-05-15T15:41:47.976Z,1.60
2023-05-15T15:44:14.977Z,1.90
2023-05-15T15:46:41.874Z,2.10
2023-05-15T15:49:08.777Z,2.50
2023-05-15T15:51:35.605Z,2.30
2023-05-15T15:54:02.475Z,2.00
2023-05-15T15:56:29.370Z,2.40
2023-05-15T15:58:56.166Z,1.80
2023-05-15T16:01:23.458Z,1.80
2023-05-15T16:03:50.419Z,2.10
2023-05-15T16:06:17.384Z,2.40
2023-05-15T16:08:44.334Z,1.80
2023-05-15T16:11:11.178Z,2.50
2023-05-15T16:13:40.298Z,1.60
2023-05-15T16:16:08.150Z,2.30
2023-05-15T16:18:35.455Z,1.90
2023-05-15T16:21:02.397Z,1.70
2023-05-15T16:23:32.968Z,1.90
2023-05-15T16:25:59.768Z,2.20
2023-05-15T16:28:26.708Z,1.80
2023-05-15T16:30:53.647Z,1.60
2023-05-15T16:33:20.885Z,1.50
2023-05-15T16:35:47.826Z,2.10
2023-05-15T16:38:14.775Z,1.80
2023-05-15T16:40:41.817Z,1.60
2023-05-15T16:43:09.097Z,1.90
2023-05-15T16:45:35.888Z,2.00
2023-05-15T16:48:02.815Z,2.10
2023-05-15T16:50:31.693Z,3.60
2023-05-15T16:52:59.060Z,2.40
2023-05-15T16:55:26.087Z,2.20
2023-05-15T16:57:52.960Z,2.10
2023-05-15T17:00:21.183Z,1.90
2023-05-15T17:02:48.760Z,2.00
2023-05-15T17:05:15.844Z,2.60
2023-05-15T17:07:43.364Z,2.00
2023-05-15T17:10:11.413Z,1.90
2023-05-15T17:12:38.369Z,2.10
2023-05-15T17:15:06.280Z,2.70
2023-05-15T17:17:33.214Z,1.90
2023-05-15T17:20:02.414Z,2.70
2023-05-15T17:22:29.876Z,3.10
2023-05-15T17:24:57.137Z,3.10
2023-05-15T17:27:24.657Z,2.60
2023-05-15T17:29:51.564Z,2.30
2023-05-15T17:32:18.989Z,2.80
2023-05-15T17:34:46.336Z,3.00
2023-05-15T17:37:13.131Z,2.90
2023-05-15T17:39:40.090Z,2.40
2023-05-15T17:42:06.960Z,3.10
2023-05-15T17:44:33.837Z,3.00
2023-05-15T17:47:00.920Z,3.50
2023-05-15T17:49:28.069Z,2.60
2023-05-15T17:51:54.845Z,2.70
2023-05-15T17:54:21.759Z,2.60
2023-05-15T17:56:48.725Z,2.80
2023-05-15T17:59:16.283Z,2.20
2023-05-15T18:01:43.268Z,2.80
2023-05-15T18:04:10.797Z,2.60
2023-05-15T18:06:38.100Z,2.60
2023-05-15T18:09:05.302Z,2.70
2023-05-15T18:11:32.435Z,2.70
2023-05-15T18:13:59.447Z,3.20
2023-05-15T18:16:26.542Z,3.30
2023-05-15T18:18:53.733Z,3.00
2023-05-15T18:21:20.851Z,3.10
2023-05-15T18:23:47.683Z,2.60
2023-05-15T18:26:14.533Z,2.30
2023-05-15T18:28:41.432Z,2.50
2023-05-15T18:31:08.501Z,3.00
2023-05-15T18:33:35.530Z,2.90
2023-05-15T18:36:03.150Z,3.00
2023-05-15T18:38:31.052Z,2.80
2023-05-15T18:40:57.878Z,2.80
2023-05-15T18:43:24.823Z,3.10
2023-05-15T18:45:51.685Z,3.00
2023-05-15T18:48:18.526Z,2.60
2023-05-15T18:50:45.572Z,3.20
2023-05-15T18:53:12.479Z,3.40
2023-05-15T18:55:39.602Z,3.10
2023-05-15T18:58:06.607Z,3.50
2023-05-15T19:00:38.652Z,3.90
2023-05-15T19:03:08.304Z,3.60
2023-05-15T19:05:35.553Z,3.70
2023-05-15T19:08:02.931Z,3.40
2023-05-15T19:10:30.739Z,3.40
2023-05-15T19:12:57.902Z,3.00
2023-05-15T19:15:24.913Z,3.50
2023-05-15T19:17:52.010Z,2.90
2023-05-15T19:20:19.415Z,3.30
2023-05-15T19:22:46.450Z,3.10
2023-05-15T19:25:13.328Z,3.30
2023-05-15T19:27:40.416Z,3.50
2023-05-15T19:30:09.324Z,3.80
2023-05-15T19:32:36.607Z,3.90
2023-05-15T19:35:03.895Z,3.90
2023-05-15T19:37:30.677Z,4.20
2023-05-15T19:39:57.462Z,4.00
2023-05-15T19:42:24.272Z,3.20
2023-05-15T19:44:51.156Z,3.90
2023-05-15T19:47:18.042Z,4.00
2023-05-15T19:49:45.685Z,3.80
2023-05-15T19:52:12.556Z,3.70
2023-05-15T19:54:39.479Z,3.70
2023-05-15T19:57:06.376Z,3.10
2023-05-15T19:59:33.171Z,3.30
2023-05-15T20:02:01.700Z,3.50
2023-05-15T20:04:29.127Z,3.60
2023-05-15T20:06:55.970Z,4.00
2023-05-15T20:09:22.725Z,4.40
2023-05-15T20:11:49.646Z,4.20
2023-05-15T20:14:16.794Z,3.50
2023-05-15T20:16:43.736Z,3.00
2023-05-15T20:19:11.222Z,3.20
2023-05-15T20:21:38.907Z,3.90
2023-05-15T20:24:07.134Z,4.30
2023-05-15T20:26:36.134Z,3.30
2023-05-15T20:29:03.816Z,3.40
2023-05-15T20:31:30.943Z,3.20
2023-05-15T20:33:59.252Z,3.60
2023-05-15T20:36:26.228Z,4.10
2023-05-15T20:38:53.253Z,3.30
2023-05-15T20:41:22.831Z,3.40
2023-05-15T20:43:50.027Z,3.70
2023-05-15T20:46:17.188Z,3.30
2023-05-15T20:48:44.350Z,3.20
2023-05-15T20:51:11.246Z,3.30
2023-05-15T20:53:38.028Z,3.00
2023-05-15T20:56:05.033Z,3.20
2023-05-15T20:58:31.854Z,3.40
2023-05-15T21:01:01.259Z,3.10
2023-05-15T21:03:29.204Z,3.10
2023-05-15T21:05:57.540Z,3.20
2023-05-15T21:08:24.934Z,2.90
2023-05-15T21:10:55.516Z,2.70
2023-05-15T21:13:22.482Z,2.90
2023-05-15T21:15:49.286Z,3.30
2023-05-15T21:18:16.380Z,3.30
2023-05-15T21:20:43.296Z,3.40
2023-05-15T21:23:10.074Z,2.80
2023-05-15T21:25:37.842Z,2.90
2023-05-15T21:28:04.816Z,2.80
2023-05-15T21:30:31.812Z,3.00
2023-05-15T21:32:59.383Z,2.80
2023-05-15T21:35:29.055Z,3.60
2023-05-15T21:37:56.115Z,3.40
2023-05-15T21:40:23.070Z,3.30
2023-05-15T21:42:50.127Z,3.30
2023-05-15T21:45:17.540Z,2.70
2023-05-15T21:47:44.396Z,2.90
2023-05-15T21:50:11.524Z,3.50
2023-05-15T21:52:38.365Z,3.20
2023-05-15T21:55:06.001Z,3.90
2023-05-15T21:57:33.150Z,3.40
2023-05-15T22:00:00.221Z,3.90
2023-05-15T22:02:27.231Z,4.10
2023-05-15T22:04:54.592Z,3.40
2023-05-15T22:07:21.901Z,3.50
2023-05-15T22:09:48.887Z,3.20
2023-05-15T22:12:15.807Z,3.60
2023-05-15T22:14:54.464Z,3.20
2023-05-15T22:17:26.558Z,3.10
2023-05-15T22:19:53.681Z,2.70
2023-05-15T22:22:20.999Z,2.80
2023-05-15T22:24:48.275Z,2.80
2023-05-15T22:27:16.877Z,3.30
2023-05-15T22:29:43.980Z,3.20
2023-05-15T22:32:10.918Z,3.50
2023-05-15T22:34:37.775Z,3.30
2023-05-15T22:37:05.159Z,3.00
2023-05-15T22:39:33.071Z,2.70
2023-05-15T22:41:59.905Z,2.80
2023-05-15T22:44:26.765Z,2.70
2023-05-15T22:46:53.599Z,3.60
2023-05-15T22:49:25.385Z,3.40
2023-05-15T22:51:53.675Z,2.90
2023-05-15T22:54:23.116Z,3.40
2023-05-15T22:56:51.489Z,3.00
2023-05-15T22:59:18.664Z,3.50
2023-05-15T23:01:46.442Z,3.50
2023-05-15T23:04:13.825Z,3.00
2023-05-15T23:06:41.228Z,3.10
2023-05-15T23:09:08.636Z,3.60
2023-05-15T23:11:35.649Z,3.30
2023-05-15T23:14:03.156Z,3.80
2023-05-15T23:16:30.094Z,3.40
2023-05-15T23:18:57.970Z,3.20
2023-05-15T23:21:24.994Z,3.10
2023-05-15T23:23:51.784Z,3.40
2023-05-15T23:26:18.604Z,3.30
2023-05-15T23:28:45.395Z,3.00
2023-05-15T23:33:03.892Z,3.00
2023-05-15T23:35:30.816Z,3.60
2023-05-15T23:37:57.619Z,3.20
2023-05-15T23:40:24.729Z,3.40
2023-05-15T23:42:51.837Z,3.80
2023-05-15T23:45:18.727Z,3.40
2023-05-15T23:47:46.759Z,3.50
2023-05-15T23:50:13.673Z,2.90
2023-05-15T23:52:41.055Z,3.40
2023-05-15T23:55:08.397Z,2.70
2023-05-15T23:57:35.290Z,3.60
